sensor_id;sensor_type;location;lat;lon;timestamp;pressure;altitude;pressure_sealevel;temperature;humidity
19624;BME280;9959;49.798;9.928;2023-03-14T00:01:29;97809.69;;;9.62;99.90
19624;BME280;9959;49.798;9.928;2023-03-14T00:03:57;97815.03;;;9.57;100.00
19624;BME280;9959;49.798;9.928;2023-03-14T00:06:23;97816.19;;;9.44;100.00
19624;BME280;9959;49.798;9.928;2023-03-14T00:08:50;97816.50;;;9.48;100.00
19624;BME280;9959;49.798;9.928;2023-03-14T00:11:19;97824.66;;;9.53;100.00
19624;BME280;9959;49.798;9.928;2023-03-14T00:13:51;97821.94;;;9.75;98.42
19624;BME280;9959;49.798;9.928;2023-03-14T00:16:20;97800.84;;;9.89;97.12
19624;BME280;9959;49.798;9.928;2023-03-14T00:18:48;97796.28;;;9.89;96.72
19624;BME280;9959;49.798;9.928;2023-03-14T00:21:15;97798.13;;;9.83;97.02
19624;BME280;9959;49.798;9.928;2023-03-14T00:23:42;97793.84;;;9.88;97.12
19624;BME280;9959;49.798;9.928;2023-03-14T00:26:15;97784.63;;;9.78;97.45
19624;BME280;9959;49.798;9.928;2023-03-14T00:28:45;97781.56;;;9.97;95.23
19624;BME280;9959;49.798;9.928;2023-03-14T00:31:15;97782.00;;;9.83;97.11
19624;BME280;9959;49.798;9.928;2023-03-14T00:33:44;97788.28;;;9.94;96.20
19624;BME280;9959;49.798;9.928;2023-03-14T00:36:13;97790.81;;;10.06;94.41
19624;BME280;9959;49.798;9.928;2023-03-14T00:38:44;97800.28;;;10.08;93.33
19624;BME280;9959;49.798;9.928;2023-03-14T00:41:13;97792.06;;;10.20;91.58
19624;BME280;9959;49.798;9.928;2023-03-14T00:43:44;97792.50;;;10.12;92.87
19624;BME280;9959;49.798;9.928;2023-03-14T00:46:12;97786.34;;;10.16;91.50
19624;BME280;9959;49.798;9.928;2023-03-14T00:48:39;97786.03;;;10.13;91.63
19624;BME280;9959;49.798;9.928;2023-03-14T00:51:07;97787.66;;;10.14;91.45
19624;BME280;9959;49.798;9.928;2023-03-14T00:53:38;97792.06;;;10.20;90.83
19624;BME280;9959;49.798;9.928;2023-03-14T00:56:08;97790.59;;;10.12;91.44
19624;BME280;9959;49.798;9.928;2023-03-14T00:58:36;97789.94;;;10.22;90.17
19624;BME280;9959;49.798;9.928;2023-03-14T01:03:34;97797.34;;;10.15;90.45
19624;BME280;9959;49.798;9.928;2023-03-14T01:06:14;97805.19;;;10.16;89.65
19624;BME280;9959;49.798;9.928;2023-03-14T01:08:42;97805.25;;;10.22;88.76
19624;BME280;9959;49.798;9.928;2023-03-14T01:11:12;97784.47;;;10.17;88.67
19624;BME280;9959;49.798;9.928;2023-03-14T01:13:39;97804.34;;;10.16;89.00
19624;BME280;9959;49.798;9.928;2023-03-14T01:16:08;97802.72;;;10.15;88.97
19624;BME280;9959;49.798;9.928;2023-03-14T01:18:36;97811.47;;;10.22;88.17
19624;BME280;9959;49.798;9.928;2023-03-14T01:21:09;97796.78;;;10.13;88.77
19624;BME280;9959;49.798;9.928;2023-03-14T01:23:39;97796.78;;;10.13;88.83
19624;BME280;9959;49.798;9.928;2023-03-14T01:26:11;97808.69;;;10.17;88.05
19624;BME280;9959;49.798;9.928;2023-03-14T01:28:39;97802.81;;;10.20;87.64
19624;BME280;9959;49.798;9.928;2023-03-14T01:31:07;97790.91;;;10.16;87.90
19624;BME280;9959;49.798;9.928;2023-03-14T01:33:35;97796.28;;;10.16;87.63
19624;BME280;9959;49.798;9.928;2023-03-14T01:36:02;97795.19;;;10.12;88.24
19624;BME280;9959;49.798;9.928;2023-03-14T01:38:31;97796.28;;;10.16;87.52
19624;BME280;9959;49.798;9.928;2023-03-14T01:40:59;97794.38;;;10.11;87.80
19624;BME280;9959;49.798;9.928;2023-03-14T01:43:26;97786.50;;;10.05;88.47
19624;BME280;9959;49.798;9.928;2023-03-14T01:48:28;97775.00;;;10.09;87.82
19624;BME280;9959;49.798;9.928;2023-03-14T01:53:26;97762.00;;;10.01;88.53
19624;BME280;9959;49.798;9.928;2023-03-14T01:55:55;97752.03;;;10.02;88.87
19624;BME280;9959;49.798;9.928;2023-03-14T01:58:24;97747.16;;;9.99;88.59
19624;BME280;9959;49.798;9.928;2023-03-14T02:00:55;97747.06;;;9.89;89.92
19624;BME280;9959;49.798;9.928;2023-03-14T02:03:24;97757.06;;;9.93;89.24
19624;BME280;9959;49.798;9.928;2023-03-14T02:05:53;97750.31;;;9.91;89.40
19624;BME280;9959;49.798;9.928;2023-03-14T02:08:23;97744.28;;;9.78;90.66
19624;BME280;9959;49.798;9.928;2023-03-14T02:10:51;97736.22;;;9.78;90.15
19624;BME280;9959;49.798;9.928;2023-03-14T02:13:19;97718.34;;;9.67;91.54
19624;BME280;9959;49.798;9.928;2023-03-14T02:15:48;97727.09;;;9.79;90.46
19624;BME280;9959;49.798;9.928;2023-03-14T02:18:16;97721.78;;;9.90;89.62
19624;BME280;9959;49.798;9.928;2023-03-14T02:23:26;97701.50;;;9.77;90.85
19624;BME280;9959;49.798;9.928;2023-03-14T02:26:05;97695.72;;;9.63;92.25
19624;BME280;9959;49.798;9.928;2023-03-14T02:28:34;97696.81;;;9.67;91.90
19624;BME280;9959;49.798;9.928;2023-03-14T02:31:01;97705.06;;;9.82;90.32
19624;BME280;9959;49.798;9.928;2023-03-14T02:33:28;97692.63;;;9.76;91.11
19624;BME280;9959;49.798;9.928;2023-03-14T02:38:35;97698.72;;;9.67;92.31
19624;BME280;9959;49.798;9.928;2023-03-14T02:41:04;97702.81;;;9.74;91.97
19624;BME280;9959;49.798;9.928;2023-03-14T02:43:31;97707.38;;;9.74;91.64
19624;BME280;9959;49.798;9.928;2023-03-14T02:46:00;97703.94;;;9.78;91.63
19624;BME280;9959;49.798;9.928;2023-03-14T02:48:30;97706.06;;;9.76;92.70
19624;BME280;9959;49.798;9.928;2023-03-14T02:51:00;97704.44;;;9.75;93.45
19624;BME280;9959;49.798;9.928;2023-03-14T02:53:30;97700.06;;;9.69;95.23
19624;BME280;9959;49.798;9.928;2023-03-14T02:58:24;97692.44;;;9.56;98.04
19624;BME280;9959;49.798;9.928;2023-03-14T03:00:52;97676.84;;;9.58;96.02
19624;BME280;9959;49.798;9.928;2023-03-14T03:03:20;97686.38;;;9.44;98.83
19624;BME280;9959;49.798;9.928;2023-03-14T03:05:51;97691.56;;;9.50;97.50
19624;BME280;9959;49.798;9.928;2023-03-14T03:08:19;97679.69;;;9.46;98.69
19624;BME280;9959;49.798;9.928;2023-03-14T03:10:47;97670.75;;;9.41;100.00
19624;BME280;9959;49.798;9.928;2023-03-14T03:13:14;97667.50;;;9.39;100.00
19624;BME280;9959;49.798;9.928;2023-03-14T03:15:41;97663.75;;;9.40;99.24
19624;BME280;9959;49.798;9.928;2023-03-14T03:18:08;97682.56;;;9.40;98.78
19624;BME280;9959;49.798;9.928;2023-03-14T03:20:35;97679.81;;;9.35;99.36
19624;BME280;9959;49.798;9.928;2023-03-14T03:23:02;97668.00;;;9.36;99.18
19624;BME280;9959;49.798;9.928;2023-03-14T03:25:29;97665.25;;;9.31;99.91
19624;BME280;9959;49.798;9.928;2023-03-14T03:27:57;97657.75;;;9.33;100.00
19624;BME280;9959;49.798;9.928;2023-03-14T03:30:23;97654.56;;;9.36;99.84
19624;BME280;9959;49.798;9.928;2023-03-14T03:32:50;97653.00;;;9.40;99.70
19624;BME280;9959;49.798;9.928;2023-03-14T03:35:17;97656.13;;;9.32;99.63
19624;BME280;9959;49.798;9.928;2023-03-14T03:37:48;97672.44;;;9.47;98.35
19624;BME280;9959;49.798;9.928;2023-03-14T03:40:15;97675.44;;;9.50;97.56
19624;BME280;9959;49.798;9.928;2023-03-14T03:42:42;97667.81;;;9.42;99.00
19624;BME280;9959;49.798;9.928;2023-03-14T03:45:09;97669.44;;;9.43;99.79
19624;BME280;9959;49.798;9.928;2023-03-14T03:47:36;97655.13;;;9.38;100.00
19624;BME280;9959;49.798;9.928;2023-03-14T03:50:03;97658.94;;;9.42;100.00
19624;BME280;9959;49.798;9.928;2023-03-14T03:52:30;97649.25;;;9.41;100.00
19624;BME280;9959;49.798;9.928;2023-03-14T03:54:57;97647.69;;;9.45;100.00
19624;BME280;9959;49.798;9.928;2023-03-14T03:57:23;97644.28;;;9.55;98.05
19624;BME280;9959;49.798;9.928;2023-03-14T03:59:50;97637.03;;;9.55;97.83
19624;BME280;9959;49.798;9.928;2023-03-14T04:02:19;97645.00;;;9.45;98.64
19624;BME280;9959;49.798;9.928;2023-03-14T04:04:47;97637.50;;;9.47;98.11
19624;BME280;9959;49.798;9.928;2023-03-14T04:07:13;97634.44;;;9.65;95.14
19624;BME280;9959;49.798;9.928;2023-03-14T04:09:41;97635.50;;;9.64;95.39
19624;BME280;9959;49.798;9.928;2023-03-14T04:12:14;97635.44;;;9.59;94.86
19624;BME280;9959;49.798;9.928;2023-03-14T04:14:40;97627.63;;;9.58;94.43
19624;BME280;9959;49.798;9.928;2023-03-14T04:17:08;97631.69;;;9.60;93.89
19624;BME280;9959;49.798;9.928;2023-03-14T04:19:34;97628.41;;;9.53;94.84
19624;BME280;9959;49.798;9.928;2023-03-14T04:22:01;97616.03;;;9.52;94.41
19624;BME280;9959;49.798;9.928;2023-03-14T04:24:28;97628.31;;;9.43;95.32
19624;BME280;9959;49.798;9.928;2023-03-14T04:26:55;97621.25;;;9.37;95.58
19624;BME280;9959;49.798;9.928;2023-03-14T04:29:21;97629.47;;;9.52;93.95
19624;BME280;9959;49.798;9.928;2023-03-14T04:31:48;97611.22;;;9.54;92.50
19624;BME280;9959;49.798;9.928;2023-03-14T04:34:15;97609.38;;;9.60;92.52
19624;BME280;9959;49.798;9.928;2023-03-14T04:36:42;97610.75;;;9.62;91.97
19624;BME280;9959;49.798;9.928;2023-03-14T04:39:08;97611.16;;;9.76;90.45
19624;BME280;9959;49.798;9.928;2023-03-14T04:41:36;97617.34;;;9.76;89.75
19624;BME280;9959;49.798;9.928;2023-03-14T04:44:02;97603.78;;;9.66;90.89
19624;BME280;9959;49.798;9.928;2023-03-14T04:46:29;97602.16;;;9.65;90.46
19624;BME280;9959;49.798;9.928;2023-03-14T04:48:56;97607.53;;;9.65;90.70
19624;BME280;9959;49.798;9.928;2023-03-14T04:51:23;97605.88;;;9.59;90.52
19624;BME280;9959;49.798;9.928;2023-03-14T04:53:54;97609.69;;;9.63;89.75
19624;BME280;9959;49.798;9.928;2023-03-14T04:56:21;97615.88;;;9.64;89.73
19624;BME280;9959;49.798;9.928;2023-03-14T04:58:48;97612.94;;;9.65;89.51
19624;BME280;9959;49.798;9.928;2023-03-14T05:01:15;97616.72;;;9.69;89.23
19624;BME280;9959;49.798;9.928;2023-03-14T05:03:41;97605.34;;;9.57;89.85
19624;BME280;9959;49.798;9.928;2023-03-14T05:06:08;97601.88;;;9.62;88.80
19624;BME280;9959;49.798;9.928;2023-03-14T05:08:35;97599.66;;;9.54;89.76
19624;BME280;9959;49.798;9.928;2023-03-14T05:11:02;97591.34;;;9.55;88.91
19624;BME280;9959;49.798;9.928;2023-03-14T05:13:29;97601.78;;;9.52;89.45
19624;BME280;9959;49.798;9.928;2023-03-14T05:18:26;97599.31;;;9.45;89.62
19624;BME280;9959;49.798;9.928;2023-03-14T05:20:52;97601.06;;;9.34;90.95
19624;BME280;9959;49.798;9.928;2023-03-14T05:23:19;97599.88;;;9.47;90.08
19624;BME280;9959;49.798;9.928;2023-03-14T05:25:46;97599.38;;;9.23;91.86
19624;BME280;9959;49.798;9.928;2023-03-14T05:28:12;97591.56;;;9.22;91.23
19624;BME280;9959;49.798;9.928;2023-03-14T05:30:39;97591.06;;;9.25;90.97
19624;BME280;9959;49.798;9.928;2023-03-14T05:33:09;97592.56;;;9.42;89.55
19624;BME280;9959;49.798;9.928;2023-03-14T05:35:36;97581.00;;;9.42;89.75
19624;BME280;9959;49.798;9.928;2023-03-14T05:38:03;97573.75;;;9.42;89.10
19624;BME280;9959;49.798;9.928;2023-03-14T05:40:30;97567.63;;;9.47;88.76
19624;BME280;9959;49.798;9.928;2023-03-14T05:42:57;97569.50;;;9.46;88.61
19624;BME280;9959;49.798;9.928;2023-03-14T05:45:24;97562.69;;;9.39;89.33
19624;BME280;9959;49.798;9.928;2023-03-14T05:47:50;97560.06;;;9.44;88.87
19624;BME280;9959;49.798;9.928;2023-03-14T05:50:17;97568.44;;;9.47;88.22
19624;BME280;9959;49.798;9.928;2023-03-14T05:52:44;97562.63;;;9.29;89.89
19624;BME280;9959;49.798;9.928;2023-03-14T05:55:11;97565.56;;;9.27;90.57
19624;BME280;9959;49.798;9.928;2023-03-14T05:57:38;97559.81;;;9.19;90.67
19624;BME280;9959;49.798;9.928;2023-03-14T06:00:05;97562.06;;;9.27;89.98
19624;BME280;9959;49.798;9.928;2023-03-14T06:02:35;97564.06;;;9.41;88.44
19624;BME280;9959;49.798;9.928;2023-03-14T06:05:02;97568.03;;;9.34;88.31
19624;BME280;9959;49.798;9.928;2023-03-14T06:07:28;97567.44;;;9.27;89.69
19624;BME280;9959;49.798;9.928;2023-03-14T06:09:55;97573.91;;;9.31;88.97
19624;BME280;9959;49.798;9.928;2023-03-14T06:12:23;97563.16;;;9.31;89.04
19624;BME280;9959;49.798;9.928;2023-03-14T06:14:51;97562.06;;;9.27;89.71
19624;BME280;9959;49.798;9.928;2023-03-14T06:17:18;97565.69;;;9.42;87.45
19624;BME280;9959;49.798;9.928;2023-03-14T06:19:45;97567.00;;;9.40;87.86
19624;BME280;9959;49.798;9.928;2023-03-14T06:22:12;97559.50;;;9.42;86.84
19624;BME280;9959;49.798;9.928;2023-03-14T06:24:40;97556.09;;;9.52;86.10
19624;BME280;9959;49.798;9.928;2023-03-14T06:27:07;97567.00;;;9.40;86.77
19624;BME280;9959;49.798;9.928;2023-03-14T06:29:33;97566.81;;;9.46;85.54
19624;BME280;9959;49.798;9.928;2023-03-14T06:32:00;97568.50;;;9.58;84.62
19624;BME280;9959;49.798;9.928;2023-03-14T06:34:31;97575.28;;;9.65;84.03
19624;BME280;9959;49.798;9.928;2023-03-14T06:39:23;97573.72;;;9.69;82.98
19624;BME280;9959;49.798;9.928;2023-03-14T06:41:56;97581.06;;;9.79;82.52
19624;BME280;9959;49.798;9.928;2023-03-14T06:44:23;97576.81;;;9.88;81.79
19624;BME280;9959;49.798;9.928;2023-03-14T06:46:49;97563.91;;;9.90;81.73
19624;BME280;9959;49.798;9.928;2023-03-14T06:49:16;97564.97;;;9.89;81.62
19624;BME280;9959;49.798;9.928;2023-03-14T06:51:43;97566.59;;;9.90;82.01
19624;BME280;9959;49.798;9.928;2023-03-14T06:54:10;97561.72;;;9.87;81.87
19624;BME280;9959;49.798;9.928;2023-03-14T06:56:37;97554.53;;;9.93;81.25
19624;BME280;9959;49.798;9.928;2023-03-14T06:59:06;97562.03;;;9.91;82.34
19624;BME280;9959;49.798;9.928;2023-03-14T07:01:34;97559.09;;;9.92;82.39
19624;BME280;9959;49.798;9.928;2023-03-14T07:04:02;97557.25;;;9.98;82.39
19624;BME280;9959;49.798;9.928;2023-03-14T07:06:29;97545.97;;;10.01;82.22
19624;BME280;9959;49.798;9.928;2023-03-14T07:11:28;97552.97;;;10.02;82.97
19624;BME280;9959;49.798;9.928;2023-03-14T07:13:55;97548.09;;;9.99;82.90
19624;BME280;9959;49.798;9.928;2023-03-14T07:16:30;97545.47;;;10.04;82.53
19624;BME280;9959;49.798;9.928;2023-03-14T07:19:00;97555.66;;;10.02;83.64
19624;BME280;9959;49.798;9.928;2023-03-14T07:21:27;97554.03;;;10.01;83.34
19624;BME280;9959;49.798;9.928;2023-03-14T07:23:54;97550.84;;;10.04;83.34
19624;BME280;9959;49.798;9.928;2023-03-14T07:26:21;97547.09;;;10.05;83.54
19624;BME280;9959;49.798;9.928;2023-03-14T07:28:48;97557.84;;;10.05;83.70
19624;BME280;9959;49.798;9.928;2023-03-14T07:31:15;97552.47;;;10.05;84.25
19624;BME280;9959;49.798;9.928;2023-03-14T07:33:41;97555.16;;;10.05;82.97
19624;BME280;9959;49.798;9.928;2023-03-14T07:36:09;97565.94;;;10.10;83.33
19624;BME280;9959;49.798;9.928;2023-03-14T07:38:35;97552.75;;;10.08;83.42
19624;BME280;9959;49.798;9.928;2023-03-14T07:41:05;97566.94;;;9.99;83.89
19624;BME280;9959;49.798;9.928;2023-03-14T07:43:32;97561.09;;;10.07;83.12
19624;BME280;9959;49.798;9.928;2023-03-14T07:45:59;97553.56;;;10.09;80.36
19624;BME280;9959;49.798;9.928;2023-03-14T07:48:26;97554.31;;;9.99;82.31
19624;BME280;9959;49.798;9.928;2023-03-14T07:50:54;97557.31;;;10.08;81.86
19624;BME280;9959;49.798;9.928;2023-03-14T07:53:22;97564.34;;;10.14;81.25
19624;BME280;9959;49.798;9.928;2023-03-14T07:55:53;97570.53;;;10.14;80.80
19624;BME280;9959;49.798;9.928;2023-03-14T07:58:21;97568.47;;;10.22;79.65
19624;BME280;9959;49.798;9.928;2023-03-14T08:00:51;97564.94;;;10.21;79.28
19624;BME280;9959;49.798;9.928;2023-03-14T08:03:19;97556.94;;;10.31;78.75
19624;BME280;9959;49.798;9.928;2023-03-14T08:05:50;97568.03;;;10.45;77.91
19624;BME280;9959;49.798;9.928;2023-03-14T08:08:17;97574.56;;;10.54;78.48
19624;BME280;9959;49.798;9.928;2023-03-14T08:10:45;97564.84;;;10.53;78.21
19624;BME280;9959;49.798;9.928;2023-03-14T08:13:13;97573.53;;;10.70;78.64
19624;BME280;9959;49.798;9.928;2023-03-14T08:15:40;97584.03;;;10.72;78.04
19624;BME280;9959;49.798;9.928;2023-03-14T08:18:07;97569.59;;;10.93;76.87
19624;BME280;9959;49.798;9.928;2023-03-14T08:20:35;97575.59;;;11.26;75.90
19624;BME280;9959;49.798;9.928;2023-03-14T08:23:03;97573.72;;;11.26;75.73
19624;BME280;9959;49.798;9.928;2023-03-14T08:25:30;97565.34;;;11.23;75.59
19624;BME280;9959;49.798;9.928;2023-03-14T08:27:57;97564.13;;;10.73;77.78
19624;BME280;9959;49.798;9.928;2023-03-14T08:30:24;97565.28;;;10.97;76.90
19624;BME280;9959;49.798;9.928;2023-03-14T08:32:51;97565.81;;;10.94;77.61
19624;BME280;9959;49.798;9.928;2023-03-14T08:35:18;97564.25;;;11.08;77.08
19624;BME280;9959;49.798;9.928;2023-03-14T08:37:44;97568.31;;;11.16;76.15
19624;BME280;9959;49.798;9.928;2023-03-14T08:40:11;97574.78;;;11.20;75.82
19624;BME280;9959;49.798;9.928;2023-03-14T08:42:39;97568.06;;;11.28;74.58
19624;BME280;9959;49.798;9.928;2023-03-14T08:45:07;97578.34;;;11.66;74.04
19624;BME280;9959;49.798;9.928;2023-03-14T08:47:34;97584.78;;;11.40;73.16
19624;BME280;9959;49.798;9.928;2023-03-14T08:50:05;97583.25;;;12.00;70.74
19624;BME280;9959;49.798;9.928;2023-03-14T08:52:32;97576.19;;;12.04;71.13
19624;BME280;9959;49.798;9.928;2023-03-14T08:54:59;97579.44;;;11.70;71.24
19624;BME280;9959;49.798;9.928;2023-03-14T08:57:26;97556.78;;;11.86;70.51
19624;BME280;9959;49.798;9.928;2023-03-14T08:59:56;97561.09;;;11.98;70.36
19624;BME280;9959;49.798;9.928;2023-03-14T09:02:24;97555.13;;;12.06;70.93
19624;BME280;9959;49.798;9.928;2023-03-14T09:04:52;97564.88;;;11.86;71.33
19624;BME280;9959;49.798;9.928;2023-03-14T09:07:19;97563.50;;;12.04;70.91
19624;BME280;9959;49.798;9.928;2023-03-14T09:09:46;97578.38;;;11.81;71.76
19624;BME280;9959;49.798;9.928;2023-03-14T09:12:12;97600.50;;;11.99;70.12
19624;BME280;9959;49.798;9.928;2023-03-14T09:14:39;97574.84;;;12.11;69.41
19624;BME280;9959;49.798;9.928;2023-03-14T09:17:06;97580.00;;;11.88;70.54
19624;BME280;9959;49.798;9.928;2023-03-14T09:19:34;97584.03;;;12.00;70.19
19624;BME280;9959;49.798;9.928;2023-03-14T09:22:01;97589.41;;;12.05;70.62
19624;BME280;9959;49.798;9.928;2023-03-14T09:24:28;97580.25;;;12.11;70.87
19624;BME280;9959;49.798;9.928;2023-03-14T09:26:56;97581.53;;;12.39;70.19
19624;BME280;9959;49.798;9.928;2023-03-14T09:29:23;97590.22;;;12.16;71.25
19624;BME280;9959;49.798;9.928;2023-03-14T09:31:51;97611.28;;;12.29;70.40
19624;BME280;9959;49.798;9.928;2023-03-14T09:34:18;97595.63;;;11.80;71.44
19624;BME280;9959;49.798;9.928;2023-03-14T09:36:45;97602.38;;;11.88;72.57
19624;BME280;9959;49.798;9.928;2023-03-14T09:39:12;97599.94;;;12.07;71.42
19624;BME280;9959;49.798;9.928;2023-03-14T09:41:41;97588.88;;;12.08;70.64
19624;BME280;9959;49.798;9.928;2023-03-14T09:46:39;97608.03;;;12.12;70.83
19624;BME280;9959;49.798;9.928;2023-03-14T09:51:50;97625.31;;;12.16;69.43
19624;BME280;9959;49.798;9.928;2023-03-14T09:56:54;97599.41;;;12.20;70.99
19624;BME280;9959;49.798;9.928;2023-03-14T09:59:21;97598.28;;;12.31;70.48
19624;BME280;9959;49.798;9.928;2023-03-14T10:01:48;97597.72;;;12.49;70.12
19624;BME280;9959;49.798;9.928;2023-03-14T10:04:19;97597.66;;;12.75;68.85
19624;BME280;9959;49.798;9.928;2023-03-14T10:06:47;97607.38;;;12.76;68.84
19624;BME280;9959;49.798;9.928;2023-03-14T10:09:20;97602.13;;;13.05;67.63
19624;BME280;9959;49.798;9.928;2023-03-14T10:11:55;97598.59;;;13.59;65.51
19624;BME280;9959;49.798;9.928;2023-03-14T10:14:35;97598.47;;;13.35;65.85
19624;BME280;9959;49.798;9.928;2023-03-14T10:17:11;97607.94;;;12.63;68.35
19624;BME280;9959;49.798;9.928;2023-03-14T10:19:57;97594.34;;;12.88;67.84
19624;BME280;9959;49.798;9.928;2023-03-14T10:22:26;97591.31;;;13.54;65.93
19624;BME280;9959;49.798;9.928;2023-03-14T10:24:57;97584.13;;;12.80;67.87
19624;BME280;9959;49.798;9.928;2023-03-14T10:27:34;97578.84;;;13.58;64.44
19624;BME280;9959;49.798;9.928;2023-03-14T10:30:07;97592.91;;;13.60;65.80
19624;BME280;9959;49.798;9.928;2023-03-14T10:32:52;97581.09;;;13.41;65.48
19624;BME280;9959;49.798;9.928;2023-03-14T10:35:21;97587.72;;;13.14;66.62
19624;BME280;9959;49.798;9.928;2023-03-14T10:40:29;97587.81;;;13.53;65.69
19624;BME280;9959;49.798;9.928;2023-03-14T10:43:05;97578.69;;;12.85;67.79
19624;BME280;9959;49.798;9.928;2023-03-14T10:45:38;97566.06;;;12.60;69.41
19624;BME280;9959;49.798;9.928;2023-03-14T10:48:34;97566.91;;;13.20;68.21
19624;BME280;9959;49.798;9.928;2023-03-14T10:56:25;97570.88;;;13.38;67.05
19624;BME280;9959;49.798;9.928;2023-03-14T10:58:53;97572.13;;;13.01;67.12
19624;BME280;9959;49.798;9.928;2023-03-14T11:04:14;97565.53;;;13.23;67.48
19624;BME280;9959;49.798;9.928;2023-03-14T11:09:32;97573.34;;;13.34;65.52
19624;BME280;9959;49.798;9.928;2023-03-14T11:14:50;97579.69;;;13.04;68.14
19624;BME280;9959;49.798;9.928;2023-03-14T11:17:29;97574.09;;;12.85;69.44
19624;BME280;9959;49.798;9.928;2023-03-14T11:30:35;97560.34;;;13.36;68.16
19624;BME280;9959;49.798;9.928;2023-03-14T11:38:29;97561.56;;;13.54;66.83
19624;BME280;9959;49.798;9.928;2023-03-14T11:40:58;97578.00;;;13.18;69.20
19624;BME280;9959;49.798;9.928;2023-03-14T11:48:39;97583.69;;;12.37;78.41
19624;BME280;9959;49.798;9.928;2023-03-14T11:51:14;97569.16;;;12.18;83.13
19624;BME280;9959;49.798;9.928;2023-03-14T11:53:58;97581.06;;;11.71;84.44
19624;BME280;9959;49.798;9.928;2023-03-14T11:56:40;97574.53;;;11.37;87.23
19624;BME280;9959;49.798;9.928;2023-03-14T11:59:17;97577.78;;;11.34;88.14
19624;BME280;9959;49.798;9.928;2023-03-14T12:07:26;97565.28;;;10.97;90.02
19624;BME280;9959;49.798;9.928;2023-03-14T12:09:56;97565.75;;;10.74;90.83
19624;BME280;9959;49.798;9.928;2023-03-14T12:12:25;97570.03;;;10.65;92.32
19624;BME280;9959;49.798;9.928;2023-03-14T12:20:03;97574.38;;;10.24;93.49
19624;BME280;9959;49.798;9.928;2023-03-14T12:22:53;97568.78;;;10.30;97.41
19624;BME280;9959;49.798;9.928;2023-03-14T12:25:27;97569.97;;;10.07;95.88
19624;BME280;9959;49.798;9.928;2023-03-14T12:30:35;97558.94;;;10.09;94.93
19624;BME280;9959;49.798;9.928;2023-03-14T12:38:10;97560.50;;;10.00;97.46
19624;BME280;9959;49.798;9.928;2023-03-14T12:43:29;97553.84;;;10.12;95.78
19624;BME280;9959;49.798;9.928;2023-03-14T12:48:26;97554.84;;;10.01;96.13
19624;BME280;9959;49.798;9.928;2023-03-14T12:50:55;97559.94;;;9.98;97.42
19624;BME280;9959;49.798;9.928;2023-03-14T12:56:24;97562.41;;;10.04;96.54
19624;BME280;9959;49.798;9.928;2023-03-14T13:01:26;97567.56;;;10.11;97.47
19624;BME280;9959;49.798;9.928;2023-03-14T13:03:55;97567.84;;;10.14;95.75
19624;BME280;9959;49.798;9.928;2023-03-14T13:09:36;97569.50;;;10.63;94.56
19624;BME280;9959;49.798;9.928;2023-03-14T13:12:17;97564.94;;;10.73;92.48
19624;BME280;9959;49.798;9.928;2023-03-14T13:14:48;97576.00;;;10.77;90.58
19624;BME280;9959;49.798;9.928;2023-03-14T13:17:22;97570.06;;;10.75;92.03
19624;BME280;9959;49.798;9.928;2023-03-14T13:20:10;97575.69;;;10.63;92.20
19624;BME280;9959;49.798;9.928;2023-03-14T13:22:38;97595.84;;;10.56;92.76
19624;BME280;9959;49.798;9.928;2023-03-14T13:25:10;97595.25;;;10.48;93.25
19624;BME280;9959;49.798;9.928;2023-03-14T13:27:37;97614.09;;;10.48;94.97
19624;BME280;9959;49.798;9.928;2023-03-14T13:30:15;97642.63;;;10.12;94.12
19624;BME280;9959;49.798;9.928;2023-03-14T13:32:44;97642.34;;;9.77;95.17
19624;BME280;9959;49.798;9.928;2023-03-14T13:35:38;97703.69;;;9.31;94.42
19624;BME280;9959;49.798;9.928;2023-03-14T13:38:13;97687.50;;;9.04;93.50
19624;BME280;9959;49.798;9.928;2023-03-14T13:40:43;97711.50;;;8.89;92.91
19624;BME280;9959;49.798;9.928;2023-03-14T13:43:16;97732.34;;;8.82;90.87
19624;BME280;9959;49.798;9.928;2023-03-14T13:45:55;97760.97;;;8.93;90.99
19624;BME280;9959;49.798;9.928;2023-03-14T13:48:27;97768.47;;;8.91;87.54
19624;BME280;9959;49.798;9.928;2023-03-14T13:50:58;97795.34;;;8.74;82.73
19624;BME280;9959;49.798;9.928;2023-03-14T13:53:26;97829.91;;;8.71;82.17
19624;BME280;9959;49.798;9.928;2023-03-14T13:55:53;97821.44;;;8.79;82.56
19624;BME280;9959;49.798;9.928;2023-03-14T13:58:26;97819.09;;;8.66;82.26
19624;BME280;9959;49.798;9.928;2023-03-14T14:03:27;97835.69;;;8.63;81.73
19624;BME280;9959;49.798;9.928;2023-03-14T14:05:56;97853.22;;;8.54;82.07
19624;BME280;9959;49.798;9.928;2023-03-14T14:08:25;97844.97;;;8.72;83.42
19624;BME280;9959;49.798;9.928;2023-03-14T14:10:57;97858.13;;;8.57;82.55
19624;BME280;9959;49.798;9.928;2023-03-14T14:13:24;97869.34;;;8.54;82.23
19624;BME280;9959;49.798;9.928;2023-03-14T14:15:54;97879.28;;;8.70;82.27
19624;BME280;9959;49.798;9.928;2023-03-14T14:18:24;97884.75;;;8.75;82.38
19624;BME280;9959;49.798;9.928;2023-03-14T14:20:54;97903.69;;;8.85;82.94
19624;BME280;9959;49.798;9.928;2023-03-14T14:23:26;97904.50;;;8.69;83.51
19624;BME280;9959;49.798;9.928;2023-03-14T14:28:30;97947.75;;;8.15;92.02
19624;BME280;9959;49.798;9.928;2023-03-14T14:33:26;97949.81;;;7.85;99.11
19624;BME280;9959;49.798;9.928;2023-03-14T14:35:58;97965.84;;;7.97;98.66
19624;BME280;9959;49.798;9.928;2023-03-14T14:38:26;97961.28;;;8.09;95.50
19624;BME280;9959;49.798;9.928;2023-03-14T14:43:28;97988.81;;;8.16;90.68
19624;BME280;9959;49.798;9.928;2023-03-14T14:45:57;98018.97;;;8.23;88.57
19624;BME280;9959;49.798;9.928;2023-03-14T14:48:26;98014.00;;;8.15;88.52
19624;BME280;9959;49.798;9.928;2023-03-14T14:56:07;98040.94;;;8.20;90.13
19624;BME280;9959;49.798;9.928;2023-03-14T14:58:36;98043.03;;;7.95;91.96
19624;BME280;9959;49.798;9.928;2023-03-14T15:01:16;98044.66;;;7.72;89.18
19624;BME280;9959;49.798;9.928;2023-03-14T15:03:46;98077.88;;;7.71;89.15
19624;BME280;9959;49.798;9.928;2023-03-14T15:06:15;98046.41;;;7.67;89.98
19624;BME280;9959;49.798;9.928;2023-03-14T15:08:43;98068.22;;;7.70;90.28
19624;BME280;9959;49.798;9.928;2023-03-14T15:11:22;98085.59;;;7.79;89.13
19624;BME280;9959;49.798;9.928;2023-03-14T15:13:50;98087.00;;;7.82;89.02
19624;BME280;9959;49.798;9.928;2023-03-14T15:16:20;98110.19;;;7.76;88.35
19624;BME280;9959;49.798;9.928;2023-03-14T15:18:58;98119.50;;;7.62;87.10
19624;BME280;9959;49.798;9.928;2023-03-14T15:21:28;98112.59;;;7.55;88.15
19624;BME280;9959;49.798;9.928;2023-03-14T15:23:55;98119.22;;;7.52;87.80